sensor_id;sensor_type;location;lat;lon;timestamp;pressure;altitude;pressure_sealevel;temperature;humidity
70200;BME280;57587;55.688;37.600;2023-02-15T00:02:01;99770.63;;;1.34;55.59
70200;BME280;57587;55.688;37.600;2023-02-15T00:04:28;99774.09;;;1.35;55.32
70200;BME280;57587;55.688;37.600;2023-02-15T00:07:15;99776.00;;;1.33;55.49
70200;BME280;57587;55.688;37.600;2023-02-15T00:09:42;99773.84;;;1.27;55.69
70200;BME280;57587;55.688;37.600;2023-02-15T00:12:09;99770.97;;;1.19;55.80
70200;BME280;57587;55.688;37.600;2023-02-15T00:14:37;99777.81;;;1.21;55.38
70200;BME280;57587;55.688;37.600;2023-02-15T00:17:04;99774.44;;;1.19;55.43
70200;BME280;57587;55.688;37.600;2023-02-15T00:19:31;99773.72;;;1.17;55.59
70200;BME280;57587;55.688;37.600;2023-02-15T00:21:58;99782.94;;;1.23;56.06
70200;BME280;57587;55.688;37.600;2023-02-15T00:24:25;99774.06;;;1.24;55.99
70200;BME280;57587;55.688;37.600;2023-02-15T00:26:52;99774.69;;;1.27;55.72
70200;BME280;57587;55.688;37.600;2023-02-15T00:29:20;99762.47;;;1.26;55.69
70200;BME280;57587;55.688;37.600;2023-02-15T00:31:47;99780.44;;;1.32;55.54
70200;BME280;57587;55.688;37.600;2023-02-15T00:34:23;99775.16;;;1.32;55.01
70200;BME280;57587;55.688;37.600;2023-02-15T00:36:50;99779.97;;;1.27;54.79
70200;BME280;57587;55.688;37.600;2023-02-15T00:39:18;99771.56;;;1.22;55.17
70200;BME280;57587;55.688;37.600;2023-02-15T00:41:46;99783.31;;;1.29;55.63
70200;BME280;57587;55.688;37.600;2023-02-15T00:44:14;99781.50;;;1.30;55.50
70200;BME280;57587;55.688;37.600;2023-02-15T00:46:42;99791.94;;;1.31;54.93
70200;BME280;57587;55.688;37.600;2023-02-15T00:49:10;99791.13;;;1.31;54.80
70200;BME280;57587;55.688;37.600;2023-02-15T00:51:37;99781.16;;;1.34;55.42
70200;BME280;57587;55.688;37.600;2023-02-15T00:54:05;99779.75;;;1.30;55.02
70200;BME280;57587;55.688;37.600;2023-02-15T00:56:32;99783.22;;;1.31;55.21
70200;BME280;57587;55.688;37.600;2023-02-15T00:58:59;99795.56;;;1.30;55.51
70200;BME280;57587;55.688;37.600;2023-02-15T01:01:27;99785.47;;;1.35;55.64
70200;BME280;57587;55.688;37.600;2023-02-15T01:03:54;99782.72;;;1.26;55.25
70200;BME280;57587;55.688;37.600;2023-02-15T01:06:21;99796.72;;;1.26;55.42
70200;BME280;57587;55.688;37.600;2023-02-15T01:08:48;99789.06;;;1.23;54.80
70200;BME280;57587;55.688;37.600;2023-02-15T01:11:18;99788.59;;;1.29;55.23
70200;BME280;57587;55.688;37.600;2023-02-15T01:13:52;99794.34;;;1.34;54.97
70200;BME280;57587;55.688;37.600;2023-02-15T01:16:20;99792.31;;;1.38;55.00
70200;BME280;57587;55.688;37.600;2023-02-15T01:18:48;99797.00;;;1.34;54.81
70200;BME280;57587;55.688;37.600;2023-02-15T01:21:18;99794.94;;;1.27;54.77
70200;BME280;57587;55.688;37.600;2023-02-15T01:23:45;99803.06;;;1.24;54.75
70200;BME280;57587;55.688;37.600;2023-02-15T01:26:13;99812.78;;;1.23;55.10
70200;BME280;57587;55.688;37.600;2023-02-15T01:28:42;99803.22;;;1.22;54.88
70200;BME280;57587;55.688;37.600;2023-02-15T01:31:15;99797.94;;;1.22;55.16
70200;BME280;57587;55.688;37.600;2023-02-15T01:33:45;99812.19;;;1.20;54.71
70200;BME280;57587;55.688;37.600;2023-02-15T01:36:13;99795.78;;;1.16;55.46
70200;BME280;57587;55.688;37.600;2023-02-15T01:38:40;99802.25;;;1.12;55.12
70200;BME280;57587;55.688;37.600;2023-02-15T01:41:07;99805.94;;;1.09;54.39
70200;BME280;57587;55.688;37.600;2023-02-15T01:43:53;99808.59;;;1.09;54.67
70200;BME280;57587;55.688;37.600;2023-02-15T01:46:49;99815.28;;;1.13;54.67
70200;BME280;57587;55.688;37.600;2023-02-15T01:49:20;99813.25;;;1.17;54.66
70200;BME280;57587;55.688;37.600;2023-02-15T01:51:52;99811.91;;;1.11;54.41
70200;BME280;57587;55.688;37.600;2023-02-15T01:54:29;99821.91;;;1.19;54.33
70200;BME280;57587;55.688;37.600;2023-02-15T01:57:01;99825.59;;;1.17;54.05
70200;BME280;57587;55.688;37.600;2023-02-15T01:59:32;99814.22;;;1.16;54.25
70200;BME280;57587;55.688;37.600;2023-02-15T02:02:00;99817.59;;;1.18;54.19
70200;BME280;57587;55.688;37.600;2023-02-15T02:04:48;99809.19;;;1.13;53.97
70200;BME280;57587;55.688;37.600;2023-02-15T02:07:20;99820.56;;;1.13;54.37
70200;BME280;57587;55.688;37.600;2023-02-15T02:09:48;99828.13;;;1.18;54.47
70200;BME280;57587;55.688;37.600;2023-02-15T02:12:16;99828.84;;;1.20;54.13
70200;BME280;57587;55.688;37.600;2023-02-15T02:14:45;99824.53;;;1.19;53.66
70200;BME280;57587;55.688;37.600;2023-02-15T02:17:22;99818.28;;;1.20;53.41
70200;BME280;57587;55.688;37.600;2023-02-15T02:20:09;99828.13;;;1.18;53.34
70200;BME280;57587;55.688;37.600;2023-02-15T02:31:29;99830.28;;;1.13;53.59
70200;BME280;57587;55.688;37.600;2023-02-15T02:34:07;99833.88;;;1.12;53.29
70200;BME280;57587;55.688;37.600;2023-02-15T02:37:28;99822.69;;;1.08;52.54
70200;BME280;57587;55.688;37.600;2023-02-15T02:47:38;99841.50;;;1.04;52.44
70200;BME280;57587;55.688;37.600;2023-02-15T02:50:14;99839.59;;;1.06;52.39
70200;BME280;57587;55.688;37.600;2023-02-15T02:52:53;99833.22;;;0.97;52.48
70200;BME280;57587;55.688;37.600;2023-02-15T02:55:43;99839.94;;;1.01;52.35
70200;BME280;57587;55.688;37.600;2023-02-15T02:58:23;99838.38;;;0.99;52.18
70200;BME280;57587;55.688;37.600;2023-02-15T03:01:12;99842.34;;;0.93;52.33
70200;BME280;57587;55.688;37.600;2023-02-15T03:03:50;99844.59;;;0.98;52.74
70200;BME280;57587;55.688;37.600;2023-02-15T03:06:41;99848.91;;;0.99;52.32
70200;BME280;57587;55.688;37.600;2023-02-15T03:09:15;99854.19;;;0.99;52.87
70200;BME280;57587;55.688;37.600;2023-02-15T03:11:45;99841.25;;;0.96;52.91
70200;BME280;57587;55.688;37.600;2023-02-15T03:14:15;99847.84;;;1.01;52.73
70200;BME280;57587;55.688;37.600;2023-02-15T03:16:47;99849.16;;;0.96;52.84
70200;BME280;57587;55.688;37.600;2023-02-15T03:19:29;99855.97;;;0.98;52.63
70200;BME280;57587;55.688;37.600;2023-02-15T03:22:04;99855.06;;;0.99;52.70
70200;BME280;57587;55.688;37.600;2023-02-15T03:24:43;99858.50;;;1.00;52.32
70200;BME280;57587;55.688;37.600;2023-02-15T03:27:15;99858.38;;;1.01;52.36
70200;BME280;57587;55.688;37.600;2023-02-15T03:29:50;99848.22;;;0.97;51.92
70200;BME280;57587;55.688;37.600;2023-02-15T03:32:21;99866.66;;;0.97;51.41
70200;BME280;57587;55.688;37.600;2023-02-15T03:34:50;99852.47;;;0.86;52.30
70200;BME280;57587;55.688;37.600;2023-02-15T03:37:36;99861.09;;;0.88;52.43
70200;BME280;57587;55.688;37.600;2023-02-15T03:43:07;99866.28;;;0.90;52.13
70200;BME280;57587;55.688;37.600;2023-02-15T03:45:38;99864.47;;;0.90;52.30
70200;BME280;57587;55.688;37.600;2023-02-15T03:48:25;99852.97;;;0.91;52.39
70200;BME280;57587;55.688;37.600;2023-02-15T03:50:57;99868.19;;;0.88;52.07
70200;BME280;57587;55.688;37.600;2023-02-15T03:53:46;99869.47;;;0.82;52.03
70200;BME280;57587;55.688;37.600;2023-02-15T03:56:14;99867.06;;;0.79;52.46
70200;BME280;57587;55.688;37.600;2023-02-15T03:58:41;99866.56;;;0.74;52.36
70200;BME280;57587;55.688;37.600;2023-02-15T04:01:34;99869.91;;;0.76;53.07
70200;BME280;57587;55.688;37.600;2023-02-15T04:04:25;99876.00;;;0.65;52.65
70200;BME280;57587;55.688;37.600;2023-02-15T04:06:53;99877.16;;;0.61;52.91
70200;BME280;57587;55.688;37.600;2023-02-15T04:09:20;99883.53;;;0.70;52.85
70200;BME280;57587;55.688;37.600;2023-02-15T04:12:05;99880.16;;;0.68;52.58
70200;BME280;57587;55.688;37.600;2023-02-15T04:14:33;99880.69;;;0.73;52.38
70200;BME280;57587;55.688;37.600;2023-02-15T04:17:18;99879.25;;;0.69;52.91
70200;BME280;57587;55.688;37.600;2023-02-15T04:19:46;99875.88;;;0.67;52.09
70200;BME280;57587;55.688;37.600;2023-02-15T04:22:31;99878.00;;;0.62;52.34
70200;BME280;57587;55.688;37.600;2023-02-15T04:25:17;99884.97;;;0.63;52.31
70200;BME280;57587;55.688;37.600;2023-02-15T04:27:48;99881.59;;;0.61;52.15
70200;BME280;57587;55.688;37.600;2023-02-15T04:30:18;99878.22;;;0.59;51.78
70200;BME280;57587;55.688;37.600;2023-02-15T04:32:46;99875.72;;;0.57;51.51
70200;BME280;57587;55.688;37.600;2023-02-15T04:35:14;99884.78;;;0.53;52.11
70200;BME280;57587;55.688;37.600;2023-02-15T04:37:42;99894.59;;;0.51;51.58
70200;BME280;57587;55.688;37.600;2023-02-15T04:40:12;99891.38;;;0.59;51.86
70200;BME280;57587;55.688;37.600;2023-02-15T04:42:40;99885.50;;;0.55;51.57
70200;BME280;57587;55.688;37.600;2023-02-15T04:45:07;99883.72;;;0.56;51.70
70200;BME280;57587;55.688;37.600;2023-02-15T04:47:34;99882.47;;;0.49;50.90
70200;BME280;57587;55.688;37.600;2023-02-15T04:50:02;99895.44;;;0.52;50.65
70200;BME280;57587;55.688;37.600;2023-02-15T04:52:29;99884.66;;;0.55;50.45
70200;BME280;57587;55.688;37.600;2023-02-15T04:54:56;99887.44;;;0.53;50.97
70200;BME280;57587;55.688;37.600;2023-02-15T04:57:23;99887.97;;;0.45;50.56
70200;BME280;57587;55.688;37.600;2023-02-15T04:59:50;99879.16;;;0.47;50.57
70200;BME280;57587;55.688;37.600;2023-02-15T05:02:17;99882.00;;;0.43;50.58
70200;BME280;57587;55.688;37.600;2023-02-15T05:04:44;99873.97;;;0.45;51.33
70200;BME280;57587;55.688;37.600;2023-02-15T05:07:12;99889.44;;;0.50;50.97
70200;BME280;57587;55.688;37.600;2023-02-15T05:09:39;99887.75;;;0.49;50.70
70200;BME280;57587;55.688;37.600;2023-02-15T05:12:06;99899.97;;;0.50;50.91
70200;BME280;57587;55.688;37.600;2023-02-15T05:14:33;99895.19;;;0.55;50.96
70200;BME280;57587;55.688;37.600;2023-02-15T05:17:00;99903.53;;;0.49;50.49
70200;BME280;57587;55.688;37.600;2023-02-15T05:19:29;99906.31;;;0.47;50.29
70200;BME280;57587;55.688;37.600;2023-02-15T05:21:56;99913.25;;;0.48;50.76
70200;BME280;57587;55.688;37.600;2023-02-15T05:24:23;99910.84;;;0.45;50.95
70200;BME280;57587;55.688;37.600;2023-02-15T05:27:12;99914.31;;;0.45;50.69
70200;BME280;57587;55.688;37.600;2023-02-15T05:29:58;99914.75;;;0.39;50.69
70200;BME280;57587;55.688;37.600;2023-02-15T05:32:25;99912.94;;;0.40;51.03
70200;BME280;57587;55.688;37.600;2023-02-15T05:34:52;99918.44;;;0.37;50.72
70200;BME280;57587;55.688;37.600;2023-02-15T05:37:19;99920.44;;;0.33;50.04
70200;BME280;57587;55.688;37.600;2023-02-15T05:39:47;99919.75;;;0.31;50.19
70200;BME280;57587;55.688;37.600;2023-02-15T05:42:13;99922.38;;;0.31;50.70
70200;BME280;57587;55.688;37.600;2023-02-15T05:44:40;99927.41;;;0.34;50.85
70200;BME280;57587;55.688;37.600;2023-02-15T05:47:08;99934.13;;;0.38;50.49
70200;BME280;57587;55.688;37.600;2023-02-15T05:49:35;99930.53;;;0.39;50.62
70200;BME280;57587;55.688;37.600;2023-02-15T05:52:03;99928.13;;;0.36;50.81
70200;BME280;57587;55.688;37.600;2023-02-15T05:54:30;99929.47;;;0.42;50.37
70200;BME280;57587;55.688;37.600;2023-02-15T05:56:57;99935.19;;;0.36;50.69
70200;BME280;57587;55.688;37.600;2023-02-15T05:59:24;99938.94;;;0.44;50.32
70200;BME280;57587;55.688;37.600;2023-02-15T06:01:52;99930.94;;;0.46;50.23
70200;BME280;57587;55.688;37.600;2023-02-15T06:04:19;99935.59;;;0.42;49.74
70200;BME280;57587;55.688;37.600;2023-02-15T06:06:46;99930.09;;;0.45;49.46
70200;BME280;57587;55.688;37.600;2023-02-15T06:09:13;99931.78;;;0.47;49.97
70200;BME280;57587;55.688;37.600;2023-02-15T06:11:41;99923.25;;;0.43;49.60
70200;BME280;57587;55.688;37.600;2023-02-15T06:14:08;99930.50;;;0.52;49.40
70200;BME280;57587;55.688;37.600;2023-02-15T06:16:35;99938.16;;;0.55;49.70
70200;BME280;57587;55.688;37.600;2023-02-15T06:19:02;99940.19;;;0.52;49.85
70200;BME280;57587;55.688;37.600;2023-02-15T06:21:30;99943.03;;;0.49;49.56
70200;BME280;57587;55.688;37.600;2023-02-15T06:23:57;99940.00;;;0.42;49.44
70200;BME280;57587;55.688;37.600;2023-02-15T06:26:25;99954.41;;;0.49;49.59
70200;BME280;57587;55.688;37.600;2023-02-15T06:28:52;99958.63;;;0.52;49.78
70200;BME280;57587;55.688;37.600;2023-02-15T06:31:19;99952.69;;;0.61;50.07
70200;BME280;57587;55.688;37.600;2023-02-15T06:33:46;99951.50;;;0.65;49.79
70200;BME280;57587;55.688;37.600;2023-02-15T06:36:13;99959.91;;;0.70;49.38
70200;BME280;57587;55.688;37.600;2023-02-15T06:38:41;99959.31;;;0.66;49.14
70200;BME280;57587;55.688;37.600;2023-02-15T06:41:08;99951.28;;;0.68;49.82
70200;BME280;57587;55.688;37.600;2023-02-15T06:43:35;99960.06;;;0.68;49.24
70200;BME280;57587;55.688;37.600;2023-02-15T06:46:02;99957.00;;;0.62;49.30
70200;BME280;57587;55.688;37.600;2023-02-15T06:48:30;99954.25;;;0.63;49.24
70200;BME280;57587;55.688;37.600;2023-02-15T06:50:57;99954.34;;;0.62;49.17
70200;BME280;57587;55.688;37.600;2023-02-15T06:53:24;99961.66;;;0.58;48.57
70200;BME280;57587;55.688;37.600;2023-02-15T06:55:51;99971.13;;;0.61;49.14
70200;BME280;57587;55.688;37.600;2023-02-15T06:58:18;99959.13;;;0.57;49.17
70200;BME280;57587;55.688;37.600;2023-02-15T07:00:45;99963.44;;;0.58;49.07
70200;BME280;57587;55.688;37.600;2023-02-15T07:03:13;99965.63;;;0.64;49.10
70200;BME280;57587;55.688;37.600;2023-02-15T07:05:40;99965.63;;;0.64;49.21
70200;BME280;57587;55.688;37.600;2023-02-15T07:08:07;99958.56;;;0.64;49.25
70200;BME280;57587;55.688;37.600;2023-02-15T07:10:34;99960.44;;;0.75;49.23
70200;BME280;57587;55.688;37.600;2023-02-15T07:13:01;99963.28;;;0.72;48.74
70200;BME280;57587;55.688;37.600;2023-02-15T07:15:28;99967.06;;;0.81;48.93
70200;BME280;57587;55.688;37.600;2023-02-15T07:17:57;99953.22;;;0.90;49.00
70200;BME280;57587;55.688;37.600;2023-02-15T07:20:25;99958.81;;;0.85;49.23
70200;BME280;57587;55.688;37.600;2023-02-15T07:22:53;99960.00;;;0.81;49.19
70200;BME280;57587;55.688;37.600;2023-02-15T07:25:20;99966.94;;;0.82;49.70
70200;BME280;57587;55.688;37.600;2023-02-15T07:27:47;99969.72;;;0.92;50.17
70200;BME280;57587;55.688;37.600;2023-02-15T07:30:16;99964.75;;;1.00;50.14
70200;BME280;57587;55.688;37.600;2023-02-15T07:32:43;99968.22;;;1.01;50.28
70200;BME280;57587;55.688;37.600;2023-02-15T07:35:32;99976.13;;;1.01;50.95
70200;BME280;57587;55.688;37.600;2023-02-15T07:38:00;99974.72;;;1.08;50.40
70200;BME280;57587;55.688;37.600;2023-02-15T07:40:27;99970.47;;;1.18;51.34
70200;BME280;57587;55.688;37.600;2023-02-15T07:42:57;99970.84;;;1.25;50.93
70200;BME280;57587;55.688;37.600;2023-02-15T07:45:24;99968.81;;;1.28;50.29
70200;BME280;57587;55.688;37.600;2023-02-15T07:47:51;99974.34;;;1.36;49.87
70200;BME280;57587;55.688;37.600;2023-02-15T07:50:19;99972.94;;;1.44;49.36
70200;BME280;57587;55.688;37.600;2023-02-15T07:52:46;99976.41;;;1.44;49.04
70200;BME280;57587;55.688;37.600;2023-02-15T07:55:14;99981.56;;;1.46;49.11
70200;BME280;57587;55.688;37.600;2023-02-15T07:57:45;99983.75;;;1.52;49.49
70200;BME280;57587;55.688;37.600;2023-02-15T08:00:14;99984.13;;;1.58;49.28
70200;BME280;57587;55.688;37.600;2023-02-15T08:02:47;99997.69;;;1.65;48.66
70200;BME280;57587;55.688;37.600;2023-02-15T08:05:14;99980.88;;;1.66;48.98
70200;BME280;57587;55.688;37.600;2023-02-15T08:07:43;99977.28;;;1.67;48.35
70200;BME280;57587;55.688;37.600;2023-02-15T08:10:10;99995.97;;;1.53;48.06
70200;BME280;57587;55.688;37.600;2023-02-15T08:12:57;99994.31;;;1.52;48.40
70200;BME280;57587;55.688;37.600;2023-02-15T08:15:24;99998.09;;;1.48;47.74
70200;BME280;57587;55.688;37.600;2023-02-15T08:17:51;99991.16;;;1.47;47.89
70200;BME280;57587;55.688;37.600;2023-02-15T08:20:18;99994.34;;;1.39;47.57
70200;BME280;57587;55.688;37.600;2023-02-15T08:22:45;100001.41;;;1.27;47.30
70200;BME280;57587;55.688;37.600;2023-02-15T08:25:12;100009.41;;;1.26;47.67
70200;BME280;57587;55.688;37.600;2023-02-15T08:27:39;100018.38;;;1.23;47.31
70200;BME280;57587;55.688;37.600;2023-02-15T08:30:07;100005.59;;;1.30;47.50
70200;BME280;57587;55.688;37.600;2023-02-15T08:32:34;100014.00;;;1.35;47.38
70200;BME280;57587;55.688;37.600;2023-02-15T08:35:01;100026.06;;;1.26;47.17
70200;BME280;57587;55.688;37.600;2023-02-15T08:37:29;100027.47;;;1.19;47.47
70200;BME280;57587;55.688;37.600;2023-02-15T08:39:56;100026.25;;;1.12;47.44
70200;BME280;57587;55.688;37.600;2023-02-15T08:42:23;100024.91;;;1.06;47.83
70200;BME280;57587;55.688;37.600;2023-02-15T08:44:50;100018.50;;;0.98;47.91
70200;BME280;57587;55.688;37.600;2023-02-15T08:47:18;100024.63;;;0.98;48.13
70200;BME280;57587;55.688;37.600;2023-02-15T08:49:45;100021.88;;;1.00;47.72
70200;BME280;57587;55.688;37.600;2023-02-15T08:52:12;100030.84;;;0.97;47.87
70200;BME280;57587;55.688;37.600;2023-02-15T08:54:39;100017.31;;;1.02;48.42
70200;BME280;57587;55.688;37.600;2023-02-15T08:57:06;100023.78;;;0.98;48.06
70200;BME280;57587;55.688;37.600;2023-02-15T08:59:33;100026.72;;;1.06;48.38
70200;BME280;57587;55.688;37.600;2023-02-15T09:02:00;100026.06;;;1.26;48.36
70200;BME280;57587;55.688;37.600;2023-02-15T09:04:28;100018.66;;;1.31;47.93
70200;BME280;57587;55.688;37.600;2023-02-15T09:06:55;100029.97;;;1.45;47.89
70200;BME280;57587;55.688;37.600;2023-02-15T09:09:22;100025.72;;;1.55;48.10
70200;BME280;57587;55.688;37.600;2023-02-15T09:11:50;100018.28;;;1.60;47.89
70200;BME280;57587;55.688;37.600;2023-02-15T09:14:24;100016.16;;;1.65;47.38
70200;BME280;57587;55.688;37.600;2023-02-15T09:16:53;100014.94;;;1.69;47.78
70200;BME280;57587;55.688;37.600;2023-02-15T09:19:22;100011.84;;;1.75;47.01
70200;BME280;57587;55.688;37.600;2023-02-15T09:21:49;100014.38;;;1.77;47.95
70200;BME280;57587;55.688;37.600;2023-02-15T09:24:17;100026.47;;;1.79;47.10
70200;BME280;57587;55.688;37.600;2023-02-15T09:26:46;100024.06;;;1.76;46.84
70200;BME280;57587;55.688;37.600;2023-02-15T09:29:14;100027.31;;;1.69;47.12
70200;BME280;57587;55.688;37.600;2023-02-15T09:31:46;100028.00;;;1.59;46.97
70200;BME280;57587;55.688;37.600;2023-02-15T09:34:15;100022.94;;;1.56;47.07
70200;BME280;57587;55.688;37.600;2023-02-15T09:36:45;100039.75;;;1.55;46.87
70200;BME280;57587;55.688;37.600;2023-02-15T09:39:17;100040.94;;;1.63;47.00
70200;BME280;57587;55.688;37.600;2023-02-15T09:50:19;100047.06;;;1.63;46.94
70200;BME280;57587;55.688;37.600;2023-02-15T10:04:20;100056.47;;;1.43;47.39
70200;BME280;57587;55.688;37.600;2023-02-15T10:18:37;100060.47;;;1.60;47.50
70200;BME280;57587;55.688;37.600;2023-02-15T10:26:43;100067.66;;;1.58;47.83
70200;BME280;57587;55.688;37.600;2023-02-15T10:32:22;100071.09;;;1.47;48.08
70200;BME280;57587;55.688;37.600;2023-02-15T10:56:20;100091.59;;;1.44;48.30
70200;BME280;57587;55.688;37.600;2023-02-15T11:07:37;100104.66;;;1.45;48.04
70200;BME280;57587;55.688;37.600;2023-02-15T11:13:03;100107.41;;;1.44;48.17
70200;BME280;57587;55.688;37.600;2023-02-15T11:15:48;100105.75;;;1.43;47.83
70200;BME280;57587;55.688;37.600;2023-02-15T11:23:24;100108.53;;;1.28;48.38
70200;BME280;57587;55.688;37.600;2023-02-15T11:26:02;100107.25;;;1.34;48.09
70200;BME280;57587;55.688;37.600;2023-02-15T11:28:34;100111.16;;;1.28;47.71
70200;BME280;57587;55.688;37.600;2023-02-15T11:31:21;100112.56;;;1.21;48.79
70200;BME280;57587;55.688;37.600;2023-02-15T11:33:55;100130.06;;;1.22;48.82
70200;BME280;57587;55.688;37.600;2023-02-15T11:36:26;100118.31;;;1.26;49.05
70200;BME280;57587;55.688;37.600;2023-02-15T11:39:24;100131.38;;;1.41;48.35
70200;BME280;57587;55.688;37.600;2023-02-15T11:41:58;100140.13;;;1.41;49.00
70200;BME280;57587;55.688;37.600;2023-02-15T11:44:32;100137.16;;;1.46;48.93
70200;BME280;57587;55.688;37.600;2023-02-15T11:47:01;100130.19;;;1.45;48.61
70200;BME280;57587;55.688;37.600;2023-02-15T11:49:33;100138.31;;;1.42;48.27
70200;BME280;57587;55.688;37.600;2023-02-15T11:52:05;100133.75;;;1.20;48.32
70200;BME280;57587;55.688;37.600;2023-02-15T11:54:39;100140.00;;;1.19;48.94
70200;BME280;57587;55.688;37.600;2023-02-15T11:59:57;100146.97;;;1.07;48.61
70200;BME280;57587;55.688;37.600;2023-02-15T12:02:35;100140.66;;;1.09;49.14
70200;BME280;57587;55.688;37.600;2023-02-15T12:05:10;100145.06;;;1.09;48.62
70200;BME280;57587;55.688;37.600;2023-02-15T12:07:46;100148.84;;;1.05;48.94
70200;BME280;57587;55.688;37.600;2023-02-15T12:10:28;100151.59;;;1.16;50.79
70200;BME280;57587;55.688;37.600;2023-02-15T12:13:15;100158.94;;;1.24;50.09
70200;BME280;57587;55.688;37.600;2023-02-15T12:15:48;100157.25;;;1.23;48.97
70200;BME280;57587;55.688;37.600;2023-02-15T12:18:42;100160.00;;;1.21;49.40
70200;BME280;57587;55.688;37.600;2023-02-15T12:21:14;100162.13;;;1.16;48.84
70200;BME280;57587;55.688;37.600;2023-02-15T12:23:51;100164.16;;;1.12;48.45
70200;BME280;57587;55.688;37.600;2023-02-15T12:26:29;100162.56;;;1.10;48.86
70200;BME280;57587;55.688;37.600;2023-02-15T12:29:00;100161.63;;;0.98;48.78
70200;BME280;57587;55.688;37.600;2023-02-15T12:31:36;100165.31;;;0.96;48.50
70200;BME280;57587;55.688;37.600;2023-02-15T12:34:10;100171.16;;;0.88;48.75
70200;BME280;57587;55.688;37.600;2023-02-15T12:36:48;100177.25;;;0.88;48.53
70200;BME280;57587;55.688;37.600;2023-02-15T12:39:24;100176.28;;;0.89;49.03
70200;BME280;57587;55.688;37.600;2023-02-15T12:41:59;100191.59;;;0.84;48.94
70200;BME280;57587;55.688;37.600;2023-02-15T12:44:35;100192.31;;;0.86;48.70
70200;BME280;57587;55.688;37.600;2023-02-15T12:49:44;100193.28;;;0.85;47.90
70200;BME280;57587;55.688;37.600;2023-02-15T12:54:49;100201.38;;;0.82;47.36
70200;BME280;57587;55.688;37.600;2023-02-15T12:57:31;100205.19;;;0.78;47.38
70200;BME280;57587;55.688;37.600;2023-02-15T13:00:26;100198.63;;;0.71;47.19
70200;BME280;57587;55.688;37.600;2023-02-15T13:02:56;100209.59;;;0.65;46.74
70200;BME280;57587;55.688;37.600;2023-02-15T13:05:42;100214.66;;;0.68;46.84
70200;BME280;57587;55.688;37.600;2023-02-15T13:08:16;100216.56;;;0.66;46.97
70200;BME280;57587;55.688;37.600;2023-02-15T13:10:56;100222.88;;;0.63;46.94
70200;BME280;57587;55.688;37.600;2023-02-15T13:13:29;100223.72;;;0.64;47.04
70200;BME280;57587;55.688;37.600;2023-02-15T13:16:02;100223.19;;;0.59;47.27
70200;BME280;57587;55.688;37.600;2023-02-15T13:18:34;100220.34;;;0.62;46.62
70200;BME280;57587;55.688;37.600;2023-02-15T13:21:11;100230.88;;;0.62;47.55
70200;BME280;57587;55.688;37.600;2023-02-15T13:23:42;100226.22;;;0.53;47.07
70200;BME280;57587;55.688;37.600;2023-02-15T13:26:16;100232.56;;;0.50;47.51
70200;BME280;57587;55.688;37.600;2023-02-15T13:28:57;100238.34;;;0.42;47.74
70200;BME280;57587;55.688;37.600;2023-02-15T13:31:28;100246.44;;;0.39;47.77
70200;BME280;57587;55.688;37.600;2023-02-15T13:34:19;100244.56;;;0.41;47.58
70200;BME280;57587;55.688;37.600;2023-02-15T13:39:51;100246.97;;;0.44;48.06
70200;BME280;57587;55.688;37.600;2023-02-15T13:42:33;100249.63;;;0.44;47.96
70200;BME280;57587;55.688;37.600;2023-02-15T14:08:36;100275.94;;;0.44;48.14
70200;BME280;57587;55.688;37.600;2023-02-15T14:20:02;100290.66;;;0.34;48.59
70200;BME280;57587;55.688;37.600;2023-02-15T14:22:42;100274.53;;;0.26;48.59
70200;BME280;57587;55.688;37.600;2023-02-15T14:25:33;100278.44;;;0.33;48.70
70200;BME280;57587;55.688;37.600;2023-02-15T14:31:03;100285.19;;;0.37;49.26
70200;BME280;57587;55.688;37.600;2023-02-15T14:33:37;100285.09;;;0.39;49.53
70200;BME280;57587;55.688;37.600;2023-02-15T14:36:07;100286.88;;;0.38;49.39
70200;BME280;57587;55.688;37.600;2023-02-15T14:41:41;100288.91;;;0.48;49.41
70200;BME280;57587;55.688;37.600;2023-02-15T14:49:22;100303.53;;;0.52;49.14
70200;BME280;57587;55.688;37.600;2023-02-15T14:51:57;100295.53;;;0.40;49.13
70200;BME280;57587;55.688;37.600;2023-02-15T14:59:45;100307.34;;;0.48;49.69
70200;BME280;57587;55.688;37.600;2023-02-15T15:02:48;100312.59;;;0.48;49.75
70200;BME280;57587;55.688;37.600;2023-02-15T15:05:20;100311.44;;;0.52;49.92
70200;BME280;57587;55.688;37.600;2023-02-15T15:07:54;100305.44;;;0.50;49.33
70200;BME280;57587;55.688;37.600;2023-02-15T15:12:50;100318.25;;;0.41;50.29
70200;BME280;57587;55.688;37.600;2023-02-15T15:18:09;100318.50;;;0.51;50.33
70200;BME280;57587;55.688;37.600;2023-02-15T15:20:50;100328.00;;;0.54;49.74
70200;BME280;57587;55.688;37.600;2023-02-15T15:25:49;100332.19;;;0.43;50.34
70200;BME280;57587;55.688;37.600;2023-02-15T15:47:16;100348.78;;;0.31;50.44
70200;BME280;57587;55.688;37.600;2023-02-15T15:49:48;100352.13;;;0.33;50.22
70200;BME280;57587;55.688;37.600;2023-02-15T15:52:17;100351.84;;;0.38;50.24
70200;BME280;57587;55.688;37.600;2023-02-15T15:54:48;100353.44;;;0.40;49.83
70200;BME280;57587;55.688;37.600;2023-02-15T15:57:27;100358.91;;;0.37;49.93
70200;BME280;57587;55.688;37.600;2023-02-15T15:59:56;100361.06;;;0.31;49.65
70200;BME280;57587;55.688;37.600;2023-02-15T16:02:27;100370.50;;;0.20;49.91
70200;BME280;57587;55.688;37.600;2023-02-15T16:05:06;100360.44;;;0.27;49.69
70200;BME280;57587;55.688;37.600;2023-02-15T16:07:33;100369.34;;;0.25;50.09
70200;BME280;57587;55.688;37.600;2023-02-15T16:10:16;100376.72;;;0.19;48.88
70200;BME280;57587;55.688;37.600;2023-02-15T16:12:48;100364.03;;;0.12;49.32
70200;BME280;57587;55.688;37.600;2023-02-15T16:15:22;100372.88;;;0.11;48.81
70200;BME280;57587;55.688;37.600;2023-02-15T16:17:55;100376.28;;;0.13;48.89
70200;BME280;57587;55.688;37.600;2023-02-15T16:20:25;100371.66;;;0.16;49.50
70200;BME280;57587;55.688;37.600;2023-02-15T16:25:46;100382.44;;;0.26;49.11
70200;BME280;57587;55.688;37.600;2023-02-15T16:28:18;100386.03;;;0.25;49.97